Time;durP1;ratioP1;P1;durP2;ratioP2;P2;SDS_P1;SDS_P2;PMS_P1;PMS_P2;Temp;Humidity;BMP_temperature;BMP_pressure;BME280_temperature;BME280_humidity;BME280_pressure;Samples;Min_cycle;Max_cycle;Signal;HPM_P1;HPM_P2
2023/05/24 00:01:24;;;;;;;9.38;1.27;;;16.30;72.40;;;;;;5093865;28;20030;-80
2023/05/24 00:04:00;;;;;;;7.97;1.65;;;16.20;72.40;;;;;;5096002;28;20083;-79
2023/05/24 00:06:26;;;;;;;8.90;1.63;;;16.20;72.70;;;;;;5113247;28;20108;-80
2023/05/24 00:08:53;;;;;;;7.03;1.25;;;16.20;72.40;;;;;;5113969;28;20049;-79
2023/05/24 00:11:19;;;;;;;6.45;0.90;;;16.20;72.30;;;;;;5095895;28;20041;-79
2023/05/24 00:13:45;;;;;;;8.38;1.75;;;16.10;72.50;;;;;;5095785;28;20027;-79
2023/05/24 00:16:11;;;;;;;8.18;1.60;;;16.10;72.90;;;;;;5095401;28;20482;-79
2023/05/24 00:18:39;;;;;;;11.05;1.40;;;16.10;72.90;;;;;;5114025;28;20499;-79
2023/05/24 00:21:07;;;;;;;7.97;1.67;;;16.10;72.60;;;;;;5112874;28;20085;-79
2023/05/24 00:23:33;;;;;;;5.80;1.35;;;16.00;72.40;;;;;;5059196;28;20104;-79
2023/05/24 00:26:00;;;;;;;7.10;1.20;;;16.00;73.10;;;;;;5093097;28;20067;-79
2023/05/24 00:28:26;;;;;;;8.88;1.23;;;16.00;73.30;;;;;;5089717;28;20097;-80
2023/05/24 00:30:52;;;;;;;11.70;1.60;;;16.00;73.50;;;;;;5093747;28;20023;-79
2023/05/24 00:33:17;;;;;;;6.45;1.33;;;16.00;73.50;;;;;;5094598;28;20480;-79
2023/05/24 00:35:43;;;;;;;7.13;1.40;;;16.00;73.50;;;;;;5075785;28;20032;-80
2023/05/24 00:38:09;;;;;;;9.48;1.17;;;16.10;73.70;;;;;;5080890;28;20483;-79
2023/05/24 00:40:35;;;;;;;8.82;1.40;;;16.10;73.60;;;;;;5095269;28;20387;-79
2023/05/24 00:43:00;;;;;;;8.85;1.80;;;16.00;73.40;;;;;;5081030;28;20535;-79
2023/05/24 00:45:26;;;;;;;8.93;1.73;;;16.00;72.70;;;;;;5099627;28;20034;-79
2023/05/24 00:47:52;;;;;;;12.25;1.85;;;15.80;72.70;;;;;;5117635;28;20069;-79
2023/05/24 00:50:19;;;;;;;9.07;1.60;;;15.80;72.90;;;;;;5112079;28;20024;-79
2023/05/24 00:52:48;;;;;;;11.13;1.40;;;15.70;73.00;;;;;;5097381;28;20046;-79
2023/05/24 00:55:14;;;;;;;7.93;1.05;;;15.70;73.00;;;;;;5096850;28;20020;-79
2023/05/24 00:57:40;;;;;;;7.78;1.20;;;15.70;73.00;;;;;;5079051;28;20024;-79
2023/05/24 01:00:06;;;;;;;8.95;1.55;;;15.70;73.10;;;;;;5062583;28;20036;-79
2023/05/24 01:02:33;;;;;;;8.98;1.35;;;15.70;73.10;;;;;;5078744;28;20481;-79
2023/05/24 01:04:58;;;;;;;8.90;1.80;;;15.60;73.00;;;;;;5096643;28;20035;-79
2023/05/24 01:07:32;;;;;;;7.80;1.25;;;15.60;73.10;;;;;;5061768;28;20048;-79
2023/05/24 01:10:33;;;;;;;7.72;1.15;;;15.50;73.20;;;;;;5096936;28;20078;-79
2023/05/24 01:13:18;;;;;;;9.25;1.35;;;15.50;73.40;;;;;;5096585;28;20035;-79
2023/05/24 01:15:44;;;;;;;5.90;0.90;;;15.50;73.60;;;;;;5096695;28;20032;-79
2023/05/24 01:18:15;;;;;;;9.30;1.60;;;15.40;73.60;;;;;;5096910;28;20082;-79
2023/05/24 01:20:42;;;;;;;8.05;1.35;;;15.40;73.90;;;;;;5096906;28;20103;-79
2023/05/24 01:23:47;;;;;;;8.52;1.55;;;15.30;74.00;;;;;;5078312;28;20560;-78
2023/05/24 01:26:41;;;;;;;8.73;1.25;;;15.30;73.80;;;;;;5082172;28;20036;-79
2023/05/24 01:29:07;;;;;;;10.98;1.58;;;15.30;74.10;;;;;;5099030;28;20035;-79
2023/05/24 01:31:34;;;;;;;9.98;1.55;;;15.20;73.90;;;;;;5098896;28;20077;-79
2023/05/24 01:34:00;;;;;;;8.80;1.10;;;15.30;74.00;;;;;;5098321;28;20365;-79
2023/05/24 01:36:26;;;;;;;7.97;1.48;;;15.20;74.10;;;;;;5098284;28;20127;-80
2023/05/24 01:38:53;;;;;;;10.05;1.50;;;15.30;74.80;;;;;;5093753;28;20059;-79
2023/05/24 01:41:25;;;;;;;9.25;1.10;;;15.30;74.80;;;;;;5078240;28;20024;-79
2023/05/24 01:43:55;;;;;;;;;;;15.30;74.50;;;;;;5096825;28;20028;-79
2023/05/24 01:46:27;;;;;;;7.82;1.48;;;15.20;74.50;;;;;;5096499;28;19912;-79
2023/05/24 01:48:55;;;;;;;10.82;1.25;;;15.20;74.50;;;;;;5096494;28;20051;-80
2023/05/24 01:51:24;;;;;;;10.38;1.75;;;15.20;74.40;;;;;;5081695;28;20090;-80
2023/05/24 01:53:51;;;;;;;10.07;1.90;;;15.20;74.30;;;;;;5096402;28;20031;-80
2023/05/24 01:56:19;;;;;;;10.90;1.83;;;15.10;74.20;;;;;;5095983;28;20077;-80
2023/05/24 01:58:46;;;;;;;9.45;1.88;;;15.10;74.20;;;;;;5096119;28;20067;-80
2023/05/24 02:01:12;;;;;;;7.05;1.38;;;15.10;74.40;;;;;;5094566;28;20028;-79
2023/05/24 02:03:39;;;;;;;9.10;1.52;;;15.10;74.60;;;;;;5094532;28;20031;-79
2023/05/24 02:06:05;;;;;;;7.00;1.20;;;15.10;74.60;;;;;;5095892;28;20043;-79
2023/05/24 02:08:31;;;;;;;5.95;1.00;;;15.10;74.90;;;;;;5094428;28;20052;-79
2023/05/24 02:10:57;;;;;;;6.97;1.38;;;15.10;75.10;;;;;;5098072;28;20042;-79
2023/05/24 02:13:22;;;;;;;5.28;0.93;;;15.20;75.60;;;;;;5097881;28;20028;-79
2023/05/24 02:15:48;;;;;;;7.22;1.20;;;15.20;75.50;;;;;;5097773;28;20027;-79
2023/05/24 02:18:17;;;;;;;8.35;1.50;;;15.20;75.70;;;;;;5081204;28;20032;-79
2023/05/24 02:20:43;;;;;;;9.10;1.33;;;15.20;75.60;;;;;;5116164;28;20027;-80
2023/05/24 02:23:08;;;;;;;9.90;1.63;;;15.20;75.30;;;;;;5097822;28;20054;-80
2023/05/24 02:25:34;;;;;;;8.07;1.48;;;15.10;75.10;;;;;;5115762;28;20539;-79
2023/05/24 02:28:00;;;;;;;8.60;1.63;;;15.10;75.00;;;;;;5107618;28;20097;-80
2023/05/24 02:30:26;;;;;;;8.52;1.55;;;15.10;75.10;;;;;;5112812;28;20110;-80
2023/05/24 02:32:52;;;;;;;8.15;1.73;;;15.00;75.20;;;;;;5115727;28;20107;-79
2023/05/24 02:35:18;;;;;;;5.30;1.13;;;15.00;75.40;;;;;;5113396;28;20391;-80
2023/05/24 02:37:44;;;;;;;8.80;1.75;;;15.00;75.60;;;;;;5114418;28;20077;-81
2023/05/24 02:40:10;;;;;;;6.78;1.30;;;15.00;75.60;;;;;;5097188;28;20421;-80
2023/05/24 02:42:35;;;;;;;5.88;1.13;;;15.00;75.80;;;;;;5080564;28;20035;-79
2023/05/24 02:45:01;;;;;;;10.13;1.80;;;15.00;75.80;;;;;;5085182;28;20028;-80
2023/05/24 02:47:27;;;;;;;9.60;1.52;;;15.00;75.90;;;;;;5076909;28;20123;-80
2023/05/24 02:49:53;;;;;;;7.47;1.30;;;15.00;75.90;;;;;;5095184;28;20028;-79
2023/05/24 02:52:22;;;;;;;8.05;1.70;;;15.00;75.90;;;;;;5094898;28;20024;-79
2023/05/24 02:54:48;;;;;;;11.20;2.08;;;14.90;75.60;;;;;;5077521;28;20032;-80
2023/05/24 02:57:14;;;;;;;10.25;1.65;;;14.90;75.50;;;;;;5107279;28;20027;-79
2023/05/24 02:59:40;;;;;;;7.50;1.83;;;14.90;75.40;;;;;;5080059;28;20023;-80
2023/05/24 03:02:05;;;;;;;8.32;1.35;;;14.80;75.60;;;;;;5097049;28;20068;-79
2023/05/24 03:04:31;;;;;;;9.00;1.73;;;14.80;75.80;;;;;;5114744;28;20024;-79
2023/05/24 03:06:56;;;;;;;7.03;1.70;;;14.70;76.20;;;;;;5095009;28;20031;-80
2023/05/24 03:09:22;;;;;;;8.40;1.58;;;14.70;76.40;;;;;;5075941;28;20060;-80
2023/05/24 03:11:48;;;;;;;8.98;1.70;;;14.70;76.60;;;;;;5076781;28;20032;-79
2023/05/24 03:14:16;;;;;;;8.10;1.80;;;14.70;76.80;;;;;;5076659;28;20388;-80
2023/05/24 03:16:41;;;;;;;10.80;2.35;;;14.70;77.00;;;;;;5076632;28;20028;-80
2023/05/24 03:19:07;;;;;;;7.95;2.00;;;14.70;77.30;;;;;;5076535;28;20024;-80
2023/05/24 03:21:33;;;;;;;7.45;1.58;;;14.70;77.50;;;;;;5076174;28;20067;-79
2023/05/24 03:23:58;;;;;;;10.85;1.83;;;14.70;77.60;;;;;;5094523;28;20036;-79
2023/05/24 03:26:25;;;;;;;8.20;2.15;;;14.70;77.80;;;;;;5076034;28;20028;-78
2023/05/24 03:28:53;;;;;;;9.02;1.48;;;14.70;77.80;;;;;;5076610;28;20031;-79
2023/05/24 03:31:19;;;;;;;9.85;1.90;;;14.60;77.70;;;;;;5076157;28;20465;-79
2023/05/24 03:33:45;;;;;;;9.10;1.50;;;14.60;77.80;;;;;;5064064;28;20039;-80
2023/05/24 03:36:10;;;;;;;11.32;2.15;;;14.60;77.90;;;;;;5073339;28;20025;-80
2023/05/24 03:38:36;;;;;;;7.15;1.85;;;14.60;78.00;;;;;;5055671;28;20036;-79
2023/05/24 03:41:02;;;;;;;8.65;1.60;;;14.70;78.10;;;;;;5089387;28;20035;-80
2023/05/24 03:43:28;;;;;;;8.38;1.33;;;14.70;78.10;;;;;;5059148;28;20035;-80
2023/05/24 03:45:54;;;;;;;8.00;1.55;;;14.70;77.90;;;;;;5094115;28;20047;-79
2023/05/24 03:48:19;;;;;;;9.25;1.48;;;14.70;78.10;;;;;;5094004;28;20024;-80
2023/05/24 03:50:46;;;;;;;7.03;1.52;;;14.70;78.20;;;;;;5059075;28;20387;-80
2023/05/24 03:53:11;;;;;;;9.38;1.85;;;14.70;78.40;;;;;;5093933;28;20115;-79
2023/05/24 03:55:37;;;;;;;9.75;2.25;;;14.70;78.50;;;;;;5059310;28;20115;-80
2023/05/24 03:58:03;;;;;;;11.05;2.42;;;14.70;78.60;;;;;;5093932;28;20051;-79
2023/05/24 04:00:29;;;;;;;11.73;2.33;;;14.60;78.70;;;;;;5060343;28;20461;-80
2023/05/24 04:02:54;;;;;;;11.02;2.35;;;14.50;79.00;;;;;;5038745;28;20182;-80
2023/05/24 04:05:20;;;;;;;7.57;1.33;;;14.60;79.50;;;;;;5055369;28;20039;-80
2023/05/24 04:07:46;;;;;;;8.30;1.92;;;14.70;79.80;;;;;;5061284;28;20048;-79
2023/05/24 04:10:12;;;;;;;9.77;2.05;;;14.70;80.30;;;;;;5075718;28;20119;-79
2023/05/24 04:12:39;;;;;;;9.40;1.52;;;14.80;80.40;;;;;;5058889;28;20038;-79
2023/05/24 04:15:06;;;;;;;12.35;1.88;;;14.80;80.60;;;;;;5094035;28;20039;-80
2023/05/24 04:17:33;;;;;;;10.25;2.38;;;14.80;80.70;;;;;;5058028;28;20036;-80
2023/05/24 04:20:00;;;;;;;10.55;2.30;;;14.80;80.60;;;;;;5093685;28;20109;-79
2023/05/24 04:22:25;;;;;;;13.98;2.45;;;14.80;80.40;;;;;;5058951;28;20127;-79
2023/05/24 04:24:51;;;;;;;10.18;1.88;;;14.50;80.40;;;;;;5075481;28;20119;-79
2023/05/24 04:27:17;;;;;;;13.30;2.50;;;14.50;81.80;;;;;;5075389;28;20093;-79
2023/05/24 04:29:48;;;;;;;13.00;2.70;;;14.50;81.90;;;;;;5058667;28;20028;-79
2023/05/24 04:32:14;;;;;;;12.38;2.28;;;14.50;81.60;;;;;;5093481;28;20099;-80
2023/05/24 04:34:43;;;;;;;10.63;2.60;;;14.50;81.70;;;;;;5093433;28;20032;-79
2023/05/24 04:37:08;;;;;;;16.58;2.63;;;14.40;81.20;;;;;;5088083;28;20115;-80
2023/05/24 04:39:34;;;;;;;10.52;1.85;;;14.30;81.40;;;;;;5093188;28;20060;-79
2023/05/24 04:42:00;;;;;;;12.43;2.67;;;14.10;82.30;;;;;;5094997;28;20519;-80
2023/05/24 04:44:26;;;;;;;11.35;2.80;;;14.10;82.40;;;;;;5092829;28;20356;-80
2023/05/24 04:46:52;;;;;;;15.93;3.58;;;14.10;82.80;;;;;;5112245;28;20122;-80
2023/05/24 04:49:18;;;;;;;9.10;1.98;;;14.00;82.60;;;;;;5113082;28;20131;-80
2023/05/24 04:51:45;;;;;;;8.07;1.65;;;14.00;83.50;;;;;;5095132;28;20058;-80
2023/05/24 04:54:10;;;;;;;11.63;2.55;;;14.10;83.60;;;;;;5089689;28;20063;-79
2023/05/24 04:56:37;;;;;;;12.32;2.67;;;14.20;83.40;;;;;;5075371;28;20055;-79
2023/05/24 04:59:07;;;;;;;14.27;3.05;;;14.20;83.00;;;;;;5093240;28;20027;-80
2023/05/24 05:01:32;;;;;;;11.85;2.78;;;14.10;82.70;;;;;;5093127;28;20032;-79
2023/05/24 05:03:59;;;;;;;12.52;2.63;;;14.10;83.40;;;;;;5092984;28;20085;-80
2023/05/24 05:06:25;;;;;;;12.40;2.80;;;14.00;83.50;;;;;;5077689;28;20458;-79
2023/05/24 05:08:51;;;;;;;13.32;2.63;;;14.00;83.70;;;;;;5092837;28;20053;-79
2023/05/24 05:11:20;;;;;;;15.98;2.63;;;13.80;83.90;;;;;;5091702;28;20032;-80
2023/05/24 05:13:46;;;;;;;11.57;2.28;;;13.80;84.30;;;;;;5092845;28;20068;-79
2023/05/24 05:16:12;;;;;;;13.48;2.30;;;13.90;84.80;;;;;;5091846;28;20097;-80
2023/05/24 05:18:38;;;;;;;12.20;2.75;;;14.00;84.80;;;;;;5093159;28;20058;-79
2023/05/24 05:21:04;;;;;;;12.93;2.58;;;14.00;84.60;;;;;;5091828;28;20478;-79
2023/05/24 05:23:30;;;;;;;15.68;3.03;;;14.10;85.00;;;;;;5093076;28;20137;-80
2023/05/24 05:25:56;;;;;;;12.30;2.53;;;14.20;84.90;;;;;;5092645;28;20056;-79
2023/05/24 05:28:21;;;;;;;11.48;2.80;;;14.20;84.70;;;;;;5093386;28;20472;-79
2023/05/24 05:30:47;;;;;;;17.13;3.15;;;14.30;84.90;;;;;;5096353;28;20058;-79
2023/05/24 05:33:13;;;;;;;12.98;2.42;;;14.40;85.00;;;;;;5078635;28;20111;-79
2023/05/24 05:35:38;;;;;;;17.90;3.17;;;14.40;85.00;;;;;;5094541;28;20392;-79
2023/05/24 05:38:04;;;;;;;14.80;3.45;;;14.50;85.20;;;;;;5096631;28;20472;-79
2023/05/24 05:40:30;;;;;;;12.02;2.67;;;14.40;85.40;;;;;;5096526;28;20457;-80
2023/05/24 05:42:56;;;;;;;12.32;2.22;;;14.40;85.90;;;;;;5091631;28;20039;-79
2023/05/24 05:45:23;;;;;;;17.25;3.13;;;14.50;86.20;;;;;;5061231;28;20036;-79
2023/05/24 05:47:50;;;;;;;16.75;3.00;;;14.50;86.20;;;;;;5080403;28;20060;-80
2023/05/24 05:50:15;;;;;;;20.15;3.15;;;14.60;86.40;;;;;;5114097;28;20116;-81
2023/05/24 05:52:41;;;;;;;12.80;3.00;;;14.50;86.20;;;;;;5107181;28;20471;-83
2023/05/24 05:55:08;;;;;;;13.68;2.53;;;14.50;86.30;;;;;;5104643;28;20376;-79
2023/05/24 05:57:34;;;;;;;14.68;3.03;;;14.50;86.40;;;;;;5116174;28;20034;-82
2023/05/24 06:00:00;;;;;;;17.23;3.10;;;14.60;86.60;;;;;;5080963;28;20386;-80
2023/05/24 06:02:26;;;;;;;19.25;3.70;;;14.60;86.40;;;;;;5115074;28;20024;-81
2023/05/24 06:04:51;;;;;;;9.65;2.22;;;14.70;86.70;;;;;;5115540;28;20123;-82
2023/05/24 06:07:17;;;;;;;17.95;3.05;;;14.50;86.50;;;;;;5097421;28;20084;-80
2023/05/24 06:09:43;;;;;;;14.55;2.95;;;14.60;87.00;;;;;;5081471;28;20068;-78
2023/05/24 06:12:08;;;;;;;16.83;3.30;;;14.60;86.90;;;;;;5087954;28;20040;-79
2023/05/24 06:14:37;;;;;;;12.80;2.60;;;14.70;86.60;;;;;;5096382;28;20383;-83
2023/05/24 06:17:04;;;;;;;23.98;3.85;;;14.60;86.50;;;;;;5066718;28;20028;-78
2023/05/24 06:19:29;;;;;;;15.48;3.80;;;14.60;86.40;;;;;;5092925;28;20039;-81
2023/05/24 06:21:56;;;;;;;18.90;3.70;;;14.50;86.60;;;;;;5080635;28;20028;-80
2023/05/24 06:24:22;;;;;;;22.25;4.65;;;14.40;87.10;;;;;;5097421;28;20045;-78
2023/05/24 06:26:49;;;;;;;13.35;3.00;;;14.40;87.50;;;;;;5097404;28;20118;-80
2023/05/24 06:29:15;;;;;;;15.82;3.70;;;14.40;87.50;;;;;;5115610;28;20027;-79
2023/05/24 06:31:42;;;;;;;19.27;3.78;;;14.30;87.20;;;;;;5081216;28;20047;-78
2023/05/24 06:34:07;;;;;;;15.65;3.90;;;14.20;87.80;;;;;;5089140;28;20032;-79
2023/05/24 06:36:34;;;;;;;20.08;4.18;;;14.10;88.10;;;;;;5094398;28;20032;-79
2023/05/24 06:39:02;;;;;;;22.15;4.53;;;14.00;88.70;;;;;;5076061;28;20039;-78
2023/05/24 06:41:28;;;;;;;11.25;2.65;;;13.90;89.00;;;;;;5094743;28;20016;-78
2023/05/24 06:43:54;;;;;;;11.40;3.33;;;13.90;89.20;;;;;;5076850;28;20036;-78
2023/05/24 06:46:20;;;;;;;15.90;3.85;;;14.10;89.30;;;;;;5077228;28;20434;-78
2023/05/24 06:48:46;;;;;;;16.17;4.38;;;14.30;89.10;;;;;;5095212;28;20032;-78
2023/05/24 06:51:11;;;;;;;14.73;3.63;;;14.30;89.20;;;;;;5076886;28;20038;-79
2023/05/24 06:53:37;;;;;;;20.88;4.45;;;14.30;89.20;;;;;;5095136;28;20444;-80
2023/05/24 06:56:03;;;;;;;18.23;4.00;;;14.40;88.90;;;;;;5065986;28;20038;-81
2023/05/24 06:58:29;;;;;;;13.13;2.88;;;14.50;88.70;;;;;;5093493;28;20438;-81
2023/05/24 07:00:55;;;;;;;18.33;4.20;;;14.70;88.40;;;;;;5093335;28;20024;-81
2023/05/24 07:03:21;;;;;;;17.50;3.83;;;14.80;87.80;;;;;;5079862;28;20081;-81
2023/05/24 07:05:46;;;;;;;14.45;3.42;;;14.70;87.00;;;;;;5096363;28;20039;-78
2023/05/24 07:08:12;;;;;;;17.70;3.78;;;14.80;87.30;;;;;;5092686;28;20028;-80
2023/05/24 07:10:37;;;;;;;17.98;3.38;;;14.80;87.80;;;;;;5096967;28;20031;-80
2023/05/24 07:13:03;;;;;;;9.43;2.58;;;14.90;87.80;;;;;;5096959;28;20039;-81
2023/05/24 07:15:29;;;;;;;13.07;3.03;;;15.00;87.70;;;;;;5115278;28;20024;-80
2023/05/24 07:17:55;;;;;;;17.20;3.28;;;15.00;87.50;;;;;;5070015;28;20044;-79
2023/05/24 07:20:20;;;;;;;18.10;3.03;;;15.00;87.10;;;;;;5090801;28;20032;-78
2023/05/24 07:22:46;;;;;;;15.20;3.17;;;14.90;87.60;;;;;;5088680;28;20031;-79
2023/05/24 07:25:11;;;;;;;10.32;2.05;;;14.90;87.20;;;;;;5084216;28;20030;-78
2023/05/24 07:27:37;;;;;;;15.85;3.50;;;14.90;87.40;;;;;;5104767;28;20114;-79
2023/05/24 07:30:04;;;;;;;15.60;3.08;;;15.00;87.70;;;;;;5085431;28;20024;-79
2023/05/24 07:32:31;;;;;;;15.65;3.50;;;15.00;87.80;;;;;;5079776;28;20035;-78
2023/05/24 07:34:57;;;;;;;17.40;3.28;;;15.00;87.60;;;;;;5094577;28;20025;-80
2023/05/24 07:37:23;;;;;;;19.38;3.72;;;14.90;88.10;;;;;;5094723;28;20027;-77
2023/05/24 07:39:50;;;;;;;23.63;3.70;;;15.00;88.70;;;;;;5114690;28;20041;-81
2023/05/24 07:42:15;;;;;;;19.83;4.05;;;15.00;89.00;;;;;;5096385;28;20480;-82
2023/05/24 07:44:41;;;;;;;13.05;3.20;;;15.00;89.60;;;;;;5096046;28;20028;-81
2023/05/24 07:47:07;;;;;;;17.17;3.38;;;14.90;88.80;;;;;;5114399;28;20032;-81
2023/05/24 07:49:32;;;;;;;13.55;2.83;;;15.10;89.00;;;;;;5114265;28;20027;-81
2023/05/24 07:51:59;;;;;;;19.25;3.03;;;15.50;88.80;;;;;;5075805;28;20024;-80
2023/05/24 07:54:25;;;;;;;15.55;2.67;;;15.70;87.60;;;;;;5075914;28;20368;-81
2023/05/24 07:56:51;;;;;;;17.50;3.25;;;16.00;85.10;;;;;;5059461;28;20431;-81
2023/05/24 07:59:17;;;;;;;13.52;2.50;;;16.00;83.10;;;;;;5076185;28;20027;-82
2023/05/24 08:01:43;;;;;;;11.48;2.13;;;15.80;83.10;;;;;;5059102;28;20028;-82
2023/05/24 08:04:09;;;;;;;14.10;2.90;;;15.90;83.50;;;;;;5075594;28;20039;-80
2023/05/24 08:06:35;;;;;;;12.52;2.25;;;16.00;83.40;;;;;;5075384;28;20066;-81
2023/05/24 08:09:04;;;;;;;11.05;2.28;;;16.00;82.80;;;;;;5093822;28;20500;-81
2023/05/24 08:11:30;;;;;;;23.73;3.08;;;16.10;82.90;;;;;;5075523;28;20020;-82
2023/05/24 08:13:56;;;;;;;16.95;2.53;;;16.10;82.80;;;;;;5075528;28;20515;-83
2023/05/24 08:16:21;;;;;;;12.50;2.70;;;16.30;82.50;;;;;;5058721;28;20107;-82
2023/05/24 08:18:47;;;;;;;11.20;2.20;;;16.20;81.50;;;;;;5075453;28;20448;-82
2023/05/24 08:21:13;;;;;;;14.80;2.97;;;16.20;82.20;;;;;;5093840;28;20437;-82
2023/05/24 08:23:38;;;;;;;14.73;2.85;;;16.10;80.40;;;;;;5096192;28;20356;-80
2023/05/24 08:26:04;;;;;;;10.65;2.30;;;15.90;81.20;;;;;;5093686;28;20032;-81
2023/05/24 08:28:30;;;;;;;15.77;3.15;;;15.90;81.40;;;;;;5059360;28;20024;-81
2023/05/24 08:30:57;;;;;;;16.60;2.72;;;15.90;81.00;;;;;;5075616;28;20031;-81
2023/05/24 08:33:23;;;;;;;17.25;3.00;;;15.90;80.40;;;;;;5059198;28;20036;-84
2023/05/24 08:35:50;;;;;;;19.23;4.70;;;15.80;81.00;;;;;;5092195;28;20363;-83
2023/05/24 08:38:16;;;;;;;21.00;4.03;;;16.00;82.10;;;;;;5075562;28;20028;-82
2023/05/24 08:40:42;;;;;;;16.17;3.00;;;16.20;82.40;;;;;;5093497;28;20016;-80
2023/05/24 08:43:11;;;;;;;11.88;2.80;;;16.20;81.80;;;;;;5093346;28;20463;-79
2023/05/24 08:45:38;;;;;;;14.60;2.53;;;16.40;81.90;;;;;;5075838;28;20115;-78
2023/05/24 08:48:08;;;;;;;13.43;2.20;;;16.50;82.00;;;;;;5093887;28;20020;-79
2023/05/24 08:50:34;;;;;;;11.77;2.53;;;16.40;79.10;;;;;;5075962;28;20024;-81
2023/05/24 08:53:01;;;;;;;9.02;2.33;;;16.30;78.90;;;;;;5075900;28;20034;-80
2023/05/24 08:55:28;;;;;;;21.52;3.88;;;16.20;79.10;;;;;;5093141;28;20024;-79
2023/05/24 08:57:55;;;;;;;13.38;2.60;;;16.10;78.90;;;;;;5076235;28;20059;-79
2023/05/24 09:00:21;;;;;;;8.77;1.90;;;16.00;78.20;;;;;;5093405;28;20030;-79
2023/05/24 09:02:48;;;;;;;11.88;2.33;;;15.90;78.30;;;;;;5077367;28;20035;-80
2023/05/24 09:05:20;;;;;;;11.70;1.95;;;15.80;77.90;;;;;;5119053;28;20023;-81
2023/05/24 09:07:48;;;;;;;9.98;2.15;;;15.80;78.60;;;;;;5083225;28;20034;-81
2023/05/24 09:10:14;;;;;;;7.50;1.88;;;15.90;78.70;;;;;;5116771;28;20051;-81
2023/05/24 09:12:47;;;;;;;8.88;2.05;;;16.00;78.80;;;;;;5078377;28;20032;-81
2023/05/24 09:15:13;;;;;;;16.20;2.75;;;16.20;78.80;;;;;;5078740;28;20059;-80
2023/05/24 09:17:45;;;;;;;10.85;2.35;;;16.20;78.40;;;;;;5094675;28;20074;-80
2023/05/24 09:20:12;;;;;;;12.60;2.53;;;16.10;78.40;;;;;;5081771;28;20043;-80
2023/05/24 09:22:40;;;;;;;11.82;2.20;;;16.20;78.20;;;;;;5082164;28;20028;-82
2023/05/24 09:25:08;;;;;;;10.02;2.08;;;16.30;78.20;;;;;;5096887;28;20028;-81
2023/05/24 09:27:34;;;;;;;7.80;1.90;;;16.30;78.00;;;;;;5096726;28;20050;-81
2023/05/24 09:30:02;;;;;;;10.20;2.20;;;16.40;78.00;;;;;;5061850;28;20574;-79
2023/05/24 09:32:30;;;;;;;13.88;2.30;;;16.20;76.80;;;;;;5096303;28;20044;-79
2023/05/24 09:34:57;;;;;;;10.07;2.40;;;16.10;76.90;;;;;;5078413;28;20077;-79
2023/05/24 09:37:26;;;;;;;10.95;2.47;;;16.20;77.90;;;;;;5078198;28;20020;-80
2023/05/24 09:39:52;;;;;;;8.73;1.88;;;16.20;77.80;;;;;;5078246;28;20079;-79
2023/05/24 09:42:23;;;;;;;11.65;2.30;;;16.10;77.40;;;;;;5096586;28;20055;-82
2023/05/24 09:45:00;;;;;;;10.52;2.40;;;16.00;77.10;;;;;;5096456;28;20039;-81
2023/05/24 09:47:30;;;;;;;13.73;2.63;;;15.90;77.80;;;;;;5078366;28;20093;-81
2023/05/24 09:49:56;;;;;;;11.45;2.10;;;15.90;78.20;;;;;;5061383;28;20073;-81
2023/05/24 09:52:21;;;;;;;10.02;2.05;;;15.80;78.20;;;;;;5060949;28;20020;-81
2023/05/24 09:54:47;;;;;;;12.38;2.28;;;15.90;78.80;;;;;;5078055;28;20376;-81
2023/05/24 09:57:16;;;;;;;10.20;2.05;;;16.00;77.70;;;;;;5077835;28;20027;-79
2023/05/24 09:59:43;;;;;;;11.45;1.80;;;16.00;77.90;;;;;;5078218;28;20049;-81
2023/05/24 10:02:12;;;;;;;9.82;2.17;;;16.10;78.80;;;;;;5061614;28;20037;-81
2023/05/24 10:04:38;;;;;;;10.55;2.13;;;16.10;77.40;;;;;;5061170;28;20138;-82
2023/05/24 10:07:06;;;;;;;6.40;1.58;;;16.10;77.20;;;;;;5061088;28;20039;-81
2023/05/24 10:09:35;;;;;;;11.23;2.13;;;16.10;76.80;;;;;;5095848;28;20154;-80
2023/05/24 10:12:05;;;;;;;9.02;1.98;;;16.20;76.50;;;;;;5061721;28;20028;-79
2023/05/24 10:14:36;;;;;;;7.03;1.88;;;16.20;77.00;;;;;;5095207;28;20028;-78
2023/05/24 10:17:05;;;;;;;8.52;1.83;;;16.30;76.40;;;;;;5100952;28;20036;-81
2023/05/24 10:19:32;;;;;;;7.97;2.00;;;16.40;77.00;;;;;;5086826;28;20103;-80
2023/05/24 10:22:00;;;;;;;6.10;1.60;;;16.40;76.90;;;;;;5067340;28;20028;-80
2023/05/24 10:24:34;;;;;;;15.52;3.28;;;16.50;77.10;;;;;;5077550;28;20431;-80
2023/05/24 10:27:03;;;;;;;6.45;1.80;;;16.50;75.90;;;;;;5095536;28;20031;-77
2023/05/24 10:29:59;;;;;;;8.15;2.13;;;16.50;75.40;;;;;;5077673;28;20582;-79
2023/05/24 10:32:30;;;;;;;16.65;3.03;;;16.40;75.20;;;;;;5094305;28;20023;-79
2023/05/24 10:34:58;;;;;;;7.57;1.80;;;16.40;75.40;;;;;;5061429;28;20077;-78
2023/05/24 10:37:25;;;;;;;10.25;1.70;;;16.40;76.30;;;;;;5095050;28;20095;-77
2023/05/24 10:39:51;;;;;;;8.48;1.92;;;16.60;76.60;;;;;;5077428;28;20020;-77
2023/05/24 10:42:16;;;;;;;9.27;1.67;;;16.70;76.00;;;;;;5100429;28;20039;-80
2023/05/24 10:44:44;;;;;;;9.75;2.53;;;16.70;76.00;;;;;;5114343;28;20344;-78
2023/05/24 10:47:11;;;;;;;10.23;2.00;;;16.80;77.30;;;;;;5114396;28;20158;-77
2023/05/24 10:49:51;;;;;;;14.27;2.20;;;16.70;75.30;;;;;;5096287;28;20043;-78
2023/05/24 10:52:17;;;;;;;10.57;2.10;;;16.70;76.20;;;;;;5099405;28;20027;-78
2023/05/24 10:55:03;;;;;;;11.90;2.30;;;16.70;75.90;;;;;;5097511;28;20020;-78
2023/05/24 10:57:30;;;;;;;12.50;2.75;;;16.70;76.70;;;;;;5096914;28;20026;-76
2023/05/24 10:59:57;;;;;;;10.05;2.10;;;16.80;78.00;;;;;;5080393;28;20028;-78
2023/05/24 11:02:27;;;;;;;11.15;2.35;;;17.00;78.40;;;;;;5115083;28;20059;-78
2023/05/24 11:04:52;;;;;;;10.48;2.25;;;17.20;77.60;;;;;;5115302;28;20136;-78
2023/05/24 11:07:19;;;;;;;9.75;2.08;;;17.30;76.90;;;;;;5073770;28;20115;-77
2023/05/24 11:09:51;;;;;;;11.43;2.00;;;17.30;74.60;;;;;;5094443;28;20476;-77
2023/05/24 11:12:19;;;;;;;10.87;2.73;;;17.20;75.30;;;;;;5094622;28;20020;-79
2023/05/24 11:14:52;;;;;;;7.65;1.90;;;17.30;75.60;;;;;;5076354;28;20346;-78
2023/05/24 11:17:19;;;;;;;;;;;17.50;76.50;;;;;;5094473;28;20546;-78
2023/05/24 11:19:54;;;;;;;7.93;1.90;;;17.60;74.40;;;;;;5094833;28;19910;-80
2023/05/24 11:22:22;;;;;;;8.65;2.00;;;17.60;73.90;;;;;;5076648;28;20028;-79
2023/05/24 11:24:48;;;;;;;10.18;1.88;;;17.60;74.10;;;;;;5111788;28;20059;-80
2023/05/24 11:27:13;;;;;;;13.30;2.72;;;17.60;74.10;;;;;;5079399;28;20027;-80
2023/05/24 11:29:40;;;;;;;9.35;1.95;;;17.60;74.40;;;;;;5079643;28;20367;-81
2023/05/24 11:32:06;;;;;;;9.98;2.40;;;17.60;74.50;;;;;;5114822;28;20042;-80
2023/05/24 11:34:33;;;;;;;8.43;1.80;;;17.60;74.30;;;;;;5079914;28;20024;-81
2023/05/24 11:37:00;;;;;;;8.98;1.92;;;17.60;73.40;;;;;;5113926;28;20028;-79
2023/05/24 11:39:35;;;;;;;8.15;1.80;;;17.70;75.00;;;;;;5079701;28;20027;-79
2023/05/24 11:42:03;;;;;;;12.73;2.08;;;18.10;74.50;;;;;;5096466;28;20360;-81
2023/05/24 11:44:31;;;;;;;10.68;2.20;;;18.20;73.30;;;;;;5114086;28;20030;-79
2023/05/24 11:47:01;;;;;;;8.80;1.85;;;18.00;72.50;;;;;;5096045;28;20031;-79
2023/05/24 11:49:27;;;;;;;9.45;2.60;;;18.00;72.70;;;;;;5080182;28;20050;-79
2023/05/24 11:51:55;;;;;;;8.98;1.90;;;17.90;72.90;;;;;;5114664;28;20488;-80
2023/05/24 11:54:22;;;;;;;8.13;1.65;;;17.90;73.40;;;;;;5114007;28;20075;-80
2023/05/24 11:56:48;;;;;;;9.38;2.20;;;17.90;73.90;;;;;;5096324;28;20092;-80
2023/05/24 11:59:14;;;;;;;12.13;2.30;;;17.90;72.80;;;;;;5062375;28;20069;-79
2023/05/24 12:01:40;;;;;;;10.27;1.65;;;17.90;73.30;;;;;;5114232;28;20016;-79
2023/05/24 12:04:09;;;;;;;7.43;1.77;;;17.80;73.50;;;;;;5095826;28;20034;-80
2023/05/24 12:06:40;;;;;;;11.65;2.50;;;17.80;72.70;;;;;;5113708;28;20106;-81
2023/05/24 12:09:07;;;;;;;9.45;2.30;;;17.80;73.20;;;;;;5095778;28;20387;-80
2023/05/24 12:11:44;;;;;;;12.23;2.20;;;17.80;73.40;;;;;;5095830;28;20314;-80
2023/05/24 12:14:12;;;;;;;12.52;2.65;;;17.80;73.50;;;;;;5114011;28;20085;-79
2023/05/24 12:16:39;;;;;;;9.63;2.42;;;17.80;73.50;;;;;;5095703;28;20051;-80
2023/05/24 12:19:04;;;;;;;11.30;1.98;;;17.90;74.20;;;;;;5114294;28;20028;-80
2023/05/24 12:21:32;;;;;;;12.23;2.55;;;18.20;74.30;;;;;;5114913;28;20023;-81
2023/05/24 12:24:08;;;;;;;10.25;1.90;;;18.50;73.70;;;;;;5115943;28;20020;-80
2023/05/24 12:26:36;;;;;;;9.60;2.00;;;18.60;72.50;;;;;;5096366;28;20161;-81
2023/05/24 12:29:02;;;;;;;5.90;1.75;;;18.50;71.80;;;;;;5113661;28;20026;-80
2023/05/24 12:31:27;;;;;;;10.27;2.28;;;18.50;71.50;;;;;;5113533;28;20020;-80
2023/05/24 12:33:53;;;;;;;8.50;2.33;;;18.60;73.00;;;;;;5094904;28;20039;-80
2023/05/24 12:36:19;;;;;;;11.02;1.95;;;18.70;73.60;;;;;;5097586;28;20078;-81
2023/05/24 12:38:45;;;;;;;8.35;2.17;;;19.10;72.90;;;;;;5099889;28;20020;-81
2023/05/24 12:41:11;;;;;;;15.13;2.85;;;19.30;71.60;;;;;;5100551;28;20023;-78